Time;durP1;ratioP1;P1;durP2;ratioP2;P2;SDS_P1;SDS_P2;PMS_P1;PMS_P2;Temp;Humidity;BMP_temperature;BMP_pressure;BME280_temperature;BME280_humidity;BME280_pressure;Samples;Min_cycle;Max_cycle;Signal;HPM_P1;HPM_P2
2022/09/14 00:02:09;;;;;;;9.40;3.60;;;21.30;1.00;;;;;;5290398;23;20518;-56
2022/09/14 00:04:35;;;;;;;9.20;2.85;;;21.30;1.00;;;;;;4990924;28;20906;-56
2022/09/14 00:07:01;;;;;;;8.32;2.85;;;21.40;1.00;;;;;;4992434;28;20449;-56
2022/09/14 00:09:26;;;;;;;6.80;2.97;;;21.30;1.00;;;;;;4991265;28;20423;-56
2022/09/14 00:11:52;;;;;;;6.88;3.20;;;21.30;1.00;;;;;;4989507;28;20436;-57
2022/09/14 00:14:18;;;;;;;7.30;2.80;;;21.20;7.40;;;;;;4987694;28;20867;-57
2022/09/14 00:16:44;;;;;;;7.78;2.97;;;21.20;68.80;;;;;;4991431;28;20437;-56
2022/09/14 00:19:22;;;;;;;6.77;3.00;;;21.20;99.90;;;;;;4991702;28;20417;-56
2022/09/14 00:21:52;;;;;;;7.00;3.10;;;21.10;99.90;;;;;;4989491;28;20458;-56
2022/09/14 00:24:19;;;;;;;8.13;3.30;;;21.10;99.90;;;;;;4984347;28;20382;-56
2022/09/14 00:26:44;;;;;;;7.15;3.10;;;21.10;99.90;;;;;;4991306;28;20414;-56
2022/09/14 00:29:10;;;;;;;6.77;2.73;;;21.10;99.90;;;;;;4991771;28;20414;-56
2022/09/14 00:31:38;;;;;;;6.82;2.80;;;21.10;99.90;;;;;;4991401;28;20402;-56
2022/09/14 00:34:06;;;;;;;6.60;2.83;;;21.10;99.90;;;;;;4991687;28;20398;-56
2022/09/14 00:36:37;;;;;;;10.38;3.50;;;21.10;99.90;;;;;;4991207;28;20818;-56
2022/09/14 00:39:03;;;;;;;6.60;2.85;;;21.10;99.90;;;;;;4991503;28;20391;-56
2022/09/14 00:41:34;;;;;;;8.93;3.20;;;21.10;1.00;;;;;;4991038;28;20863;-56
2022/09/14 00:44:04;;;;;;;8.27;2.80;;;21.10;1.00;;;;;;4991182;28;20788;-56
2022/09/14 00:46:52;;;;;;;6.63;3.00;;;21.10;1.00;;;;;;4991241;28;20387;-56
2022/09/14 00:49:30;;;;;;;7.50;2.83;;;21.00;99.90;;;;;;4990549;28;20411;-56
2022/09/14 00:52:10;;;;;;;6.95;2.78;;;21.10;99.90;;;;;;4990483;28;20838;-56
2022/09/14 00:54:39;;;;;;;7.00;2.90;;;21.10;1.00;;;;;;4989519;28;20386;-56
2022/09/14 00:57:04;;;;;;;7.30;3.00;;;21.10;1.00;;;;;;4991334;28;20426;-56
2022/09/14 00:59:34;;;;;;;6.63;3.00;;;21.00;99.90;;;;;;4990664;28;20422;-56
2022/09/14 01:02:00;;;;;;;8.05;2.85;;;20.90;99.90;;;;;;4972981;28;20811;-56
2022/09/14 01:04:25;;;;;;;7.50;3.20;;;20.90;99.90;;;;;;4988606;28;20398;-56
2022/09/14 01:07:09;;;;;;;6.60;2.83;;;21.00;1.00;;;;;;4990345;28;20383;-56
2022/09/14 01:10:07;;;;;;;7.03;3.00;;;21.00;1.00;;;;;;4988487;28;20455;-55
2022/09/14 01:12:55;;;;;;;7.22;2.80;;;21.10;26.70;;;;;;4943020;28;20399;-55
2022/09/14 01:15:26;;;;;;;7.50;2.80;;;21.10;99.90;;;;;;4990594;28;20390;-56
2022/09/14 01:18:07;;;;;;;7.03;2.80;;;21.10;36.90;;;;;;4990525;28;20859;-56
2022/09/14 01:20:50;;;;;;;9.45;3.05;;;21.10;99.90;;;;;;4988428;28;20430;-56
2022/09/14 01:23:19;;;;;;;7.78;3.00;;;21.10;1.00;;;;;;4989540;28;20402;-57
2022/09/14 01:26:16;;;;;;;7.43;3.20;;;21.20;99.90;;;;;;4987503;28;20434;-56
2022/09/14 01:28:44;;;;;;;8.25;3.40;;;21.10;99.90;;;;;;4989255;28;20418;-56
2022/09/14 01:31:26;;;;;;;6.90;3.20;;;21.10;1.00;;;;;;4990857;28;20394;-57
2022/09/14 01:33:58;;;;;;;10.18;3.78;;;21.00;99.90;;;;;;4989025;28;20390;-57
2022/09/14 01:36:27;;;;;;;8.40;3.38;;;20.70;1.00;;;;;;4990611;28;20385;-57
2022/09/14 01:38:54;;;;;;;8.60;3.70;;;20.50;99.90;;;;;;4990819;28;20514;-56
2022/09/14 01:41:24;;;;;;;9.02;3.90;;;20.40;1.00;;;;;;4990770;28;20434;-56
2022/09/14 01:44:14;;;;;;;8.75;3.90;;;20.40;99.90;;;;;;4987625;28;20394;-56
2022/09/14 01:46:49;;;;;;;10.60;4.63;;;20.40;99.90;;;;;;4989149;28;20459;-54
2022/09/14 01:49:28;;;;;;;15.02;5.32;;;20.20;1.00;;;;;;4991338;28;20421;-54
2022/09/14 01:52:18;;;;;;;12.52;5.07;;;20.00;1.00;;;;;;4991061;28;20394;-53
2022/09/14 01:55:00;;;;;;;9.23;5.07;;;19.60;52.70;;;;;;4983459;28;20388;-54
2022/09/14 01:57:41;;;;;;;10.57;4.57;;;19.30;99.90;;;;;;4989414;28;20422;-53
2022/09/14 02:00:10;;;;;;;11.70;5.40;;;18.80;99.90;;;;;;4989343;28;20449;-53
2022/09/14 02:02:43;;;;;;;12.45;5.80;;;18.60;99.90;;;;;;4987246;28;20421;-54
2022/09/14 02:05:30;;;;;;;14.10;5.93;;;18.50;99.90;;;;;;4990665;28;20743;-53
2022/09/14 02:07:56;;;;;;;11.95;5.60;;;18.40;99.90;;;;;;4987762;28;20422;-54
2022/09/14 02:10:23;;;;;;;12.52;5.63;;;18.40;99.90;;;;;;4990289;28;20498;-54
2022/09/14 02:12:49;;;;;;;9.85;5.32;;;18.30;99.90;;;;;;4989940;28;20386;-54
2022/09/14 02:15:15;;;;;;;10.45;5.15;;;18.40;99.90;;;;;;4989972;28;20485;-54
2022/09/14 02:17:42;;;;;;;10.45;5.32;;;18.50;99.90;;;;;;4989368;28;20422;-53
2022/09/14 02:20:15;;;;;;;12.38;5.63;;;18.50;99.90;;;;;;4989724;28;20759;-53
2022/09/14 02:22:41;;;;;;;15.52;5.97;;;18.60;99.90;;;;;;4990764;28;20836;-53
2022/09/14 02:25:07;;;;;;;13.20;5.80;;;18.60;99.90;;;;;;4994126;28;20437;-54
2022/09/14 02:27:32;;;;;;;9.60;4.60;;;18.70;99.90;;;;;;4993819;28;20732;-53
2022/09/14 02:29:58;;;;;;;10.60;5.18;;;18.70;99.90;;;;;;4994080;28;20433;-54
2022/09/14 02:32:48;;;;;;;9.17;5.00;;;18.80;99.90;;;;;;4993827;28;20382;-54
2022/09/14 02:35:21;;;;;;;12.07;4.35;;;18.80;99.90;;;;;;4991133;28;20482;-54
2022/09/14 02:37:59;;;;;;;11.65;4.80;;;18.90;99.90;;;;;;4993038;28;20481;-54
2022/09/14 02:40:39;;;;;;;10.27;4.78;;;19.00;99.90;;;;;;4992979;28;20413;-54
2022/09/14 02:43:27;;;;;;;10.85;4.90;;;18.90;99.90;;;;;;4988157;28;20513;-54
2022/09/14 02:46:05;;;;;;;10.90;5.05;;;18.90;99.90;;;;;;4992552;28;20445;-54
2022/09/14 02:48:58;;;;;;;9.10;5.18;;;18.80;99.90;;;;;;4990284;28;20414;-53
2022/09/14 02:52:01;;;;;;;9.30;4.80;;;18.80;99.90;;;;;;4992497;28;20393;-53
2022/09/14 02:54:37;;;;;;;8.18;4.60;;;18.80;99.90;;;;;;4992437;28;20374;-53
2022/09/14 02:57:03;;;;;;;12.65;4.90;;;18.80;99.90;;;;;;4973390;28;20801;-53
2022/09/14 02:59:29;;;;;;;9.38;5.30;;;18.90;99.90;;;;;;4992892;28;20386;-53
2022/09/14 03:01:56;;;;;;;9.60;4.77;;;18.90;99.90;;;;;;4992748;28;20484;-53
2022/09/14 03:04:22;;;;;;;8.35;4.80;;;19.00;99.90;;;;;;4993575;28;20378;-53
2022/09/14 03:06:47;;;;;;;9.15;4.90;;;18.90;99.90;;;;;;4993128;28;20386;-54
2022/09/14 03:09:13;;;;;;;10.97;4.60;;;19.00;99.90;;;;;;4993500;28;20450;-54
2022/09/14 03:11:38;;;;;;;9.40;4.72;;;18.90;99.90;;;;;;4992789;28;20379;-54
2022/09/14 03:14:04;;;;;;;8.52;4.90;;;18.80;99.90;;;;;;4993282;28;20743;-54
2022/09/14 03:16:30;;;;;;;10.82;5.13;;;18.90;99.90;;;;;;4992908;28;20925;-54
2022/09/14 03:18:55;;;;;;;9.57;5.50;;;18.90;99.90;;;;;;4993347;28;20390;-53
2022/09/14 03:21:21;;;;;;;8.33;5.13;;;18.90;99.90;;;;;;4993128;28;20871;-53
2022/09/14 03:23:50;;;;;;;10.80;5.47;;;18.90;99.90;;;;;;4992446;28;20390;-53
2022/09/14 03:26:18;;;;;;;11.52;5.57;;;18.90;99.90;;;;;;4990589;28;20382;-53
2022/09/14 03:28:48;;;;;;;10.52;5.30;;;18.90;99.90;;;;;;4992641;28;20883;-53
2022/09/14 03:31:14;;;;;;;10.07;5.20;;;18.90;99.90;;;;;;4990269;28;20394;-53
2022/09/14 03:33:40;;;;;;;12.00;5.93;;;18.90;99.90;;;;;;4991445;28;20394;-53
2022/09/14 03:36:17;;;;;;;11.05;5.95;;;18.90;99.90;;;;;;4992631;28;20855;-53
2022/09/14 03:38:45;;;;;;;9.80;5.80;;;18.90;99.90;;;;;;4990308;28;20437;-53
2022/09/14 03:41:11;;;;;;;9.63;5.47;;;19.00;99.90;;;;;;4992803;28;20863;-53
2022/09/14 03:43:37;;;;;;;11.90;5.90;;;18.90;99.90;;;;;;4992687;28;20379;-53
2022/09/14 03:46:08;;;;;;;12.82;5.97;;;18.70;99.90;;;;;;4993006;28;20383;-53
2022/09/14 03:48:34;;;;;;;14.20;5.60;;;18.80;99.90;;;;;;4971780;28;20420;-54
2022/09/14 03:51:04;;;;;;;12.95;6.40;;;18.80;99.90;;;;;;4992410;28;20383;-53
2022/09/14 03:53:30;;;;;;;12.90;6.00;;;18.70;99.90;;;;;;4991798;28;20788;-53
2022/09/14 03:55:57;;;;;;;10.13;6.00;;;18.70;99.90;;;;;;4992479;28;20839;-53
2022/09/14 03:58:23;;;;;;;10.70;6.13;;;18.70;99.90;;;;;;4992638;28;20390;-53
2022/09/14 04:00:49;;;;;;;10.18;6.00;;;18.80;99.90;;;;;;4991468;28;20593;-53
2022/09/14 04:03:16;;;;;;;13.13;6.57;;;18.80;99.90;;;;;;4982240;28;20392;-53
2022/09/14 04:05:42;;;;;;;11.30;5.80;;;18.90;99.90;;;;;;4987695;28;20418;-53
2022/09/14 04:08:08;;;;;;;11.82;5.95;;;19.00;99.90;;;;;;4992129;28;20436;-53
2022/09/14 04:10:33;;;;;;;16.40;6.20;;;19.00;99.90;;;;;;4990838;28;20887;-53
2022/09/14 04:13:00;;;;;;;13.40;6.50;;;19.00;99.90;;;;;;4974772;28;20394;-53
2022/09/14 04:15:26;;;;;;;10.52;6.28;;;19.00;99.90;;;;;;4992074;28;20421;-54
2022/09/14 04:17:52;;;;;;;12.23;6.28;;;19.00;99.90;;;;;;4991308;28;21003;-53
2022/09/14 04:20:18;;;;;;;9.95;6.00;;;19.00;99.90;;;;;;4991769;28;20409;-54
2022/09/14 04:22:44;;;;;;;12.47;6.10;;;19.00;99.90;;;;;;4991610;28;20471;-53
2022/09/14 04:25:10;;;;;;;10.60;5.70;;;19.00;99.90;;;;;;4991415;28;20387;-53
2022/09/14 04:27:36;;;;;;;9.88;5.68;;;18.80;99.90;;;;;;4990629;28;20408;-53
2022/09/14 04:30:03;;;;;;;9.70;5.65;;;18.70;99.90;;;;;;4991661;28;20765;-54
2022/09/14 04:32:28;;;;;;;12.20;5.80;;;18.70;99.90;;;;;;4992027;28;20393;-53
2022/09/14 04:34:54;;;;;;;10.90;5.90;;;18.80;99.90;;;;;;4991268;28;20379;-54
2022/09/14 04:37:19;;;;;;;10.85;5.40;;;18.80;99.90;;;;;;4991914;28;20450;-54
2022/09/14 04:39:45;;;;;;;12.40;6.25;;;18.80;99.90;;;;;;4980027;28;20960;-53
2022/09/14 04:42:11;;;;;;;11.25;6.10;;;18.90;99.90;;;;;;4967901;28;21058;-54
2022/09/14 04:44:36;;;;;;;11.40;5.90;;;18.90;99.90;;;;;;4987652;28;20390;-53
2022/09/14 04:47:02;;;;;;;11.83;6.10;;;18.90;99.90;;;;;;4988528;28;20398;-53
2022/09/14 04:49:27;;;;;;;12.53;7.20;;;18.90;99.90;;;;;;4988972;28;20506;-54
2022/09/14 04:51:53;;;;;;;11.20;6.60;;;19.00;99.90;;;;;;4983566;28;20438;-54
2022/09/14 04:54:19;;;;;;;12.35;6.00;;;19.00;99.90;;;;;;4975121;28;20418;-54
2022/09/14 04:56:45;;;;;;;12.10;6.03;;;19.00;99.90;;;;;;4977636;28;20450;-54
2022/09/14 04:59:10;;;;;;;12.10;6.20;;;19.10;99.90;;;;;;4991563;28;20378;-53
2022/09/14 05:01:39;;;;;;;11.13;6.35;;;19.10;99.90;;;;;;4968747;28;20431;-54
2022/09/14 05:04:05;;;;;;;16.20;7.50;;;19.20;99.90;;;;;;4989580;28;20405;-53
2022/09/14 05:06:33;;;;;;;18.02;10.27;;;19.20;99.90;;;;;;4981342;28;20388;-53
2022/09/14 05:09:00;;;;;;;15.90;11.00;;;18.90;99.90;;;;;;4988737;28;20406;-54
2022/09/14 05:11:32;;;;;;;20.63;11.27;;;18.60;99.90;;;;;;4990860;28;20390;-54
2022/09/14 05:13:59;;;;;;;16.98;10.43;;;18.70;99.90;;;;;;4990533;28;20915;-54
2022/09/14 05:16:31;;;;;;;16.50;10.23;;;18.70;99.90;;;;;;4990984;28;20465;-54
2022/09/14 05:19:00;;;;;;;15.38;9.65;;;18.80;99.90;;;;;;4991322;28;20417;-54
2022/09/14 05:21:27;;;;;;;16.50;11.40;;;19.00;99.90;;;;;;4991949;28;20807;-54
2022/09/14 05:23:55;;;;;;;15.80;9.90;;;18.90;99.90;;;;;;4990964;28;20530;-54
2022/09/14 05:26:22;;;;;;;17.60;9.60;;;18.90;99.90;;;;;;4991119;28;20394;-54
2022/09/14 05:28:53;;;;;;;16.20;10.30;;;19.10;99.90;;;;;;4990068;28;20582;-54
2022/09/14 05:31:19;;;;;;;16.77;10.40;;;19.10;99.90;;;;;;4991388;28;20398;-54
2022/09/14 05:33:45;;;;;;;16.23;10.00;;;19.20;99.90;;;;;;4990866;28;20485;-55
2022/09/14 05:36:11;;;;;;;15.43;10.10;;;19.20;99.90;;;;;;4991216;28;20423;-54
2022/09/14 05:38:38;;;;;;;16.73;10.48;;;19.20;99.90;;;;;;4990275;28;20423;-54
2022/09/14 05:41:06;;;;;;;16.13;10.40;;;19.20;99.90;;;;;;4990731;28;20462;-54
2022/09/14 05:43:32;;;;;;;14.88;10.00;;;19.30;99.90;;;;;;4990767;28;20394;-54
2022/09/14 05:46:05;;;;;;;14.52;9.90;;;19.40;99.90;;;;;;4990381;28;20938;-54
2022/09/14 05:48:32;;;;;;;15.18;10.27;;;19.40;99.90;;;;;;4990535;28;20721;-54
2022/09/14 05:51:03;;;;;;;14.15;10.00;;;19.40;99.90;;;;;;4989970;28;20692;-54
2022/09/14 05:53:30;;;;;;;16.37;10.47;;;19.30;99.90;;;;;;4990794;28;20406;-54
2022/09/14 05:56:08;;;;;;;17.27;10.70;;;19.30;99.90;;;;;;4990043;28;20399;-54
2022/09/14 05:58:35;;;;;;;16.50;10.23;;;19.20;99.90;;;;;;4990219;28;20430;-54
2022/09/14 06:01:19;;;;;;;16.33;9.60;;;19.30;99.90;;;;;;4990656;28;20415;-53
2022/09/14 06:03:46;;;;;;;15.68;10.57;;;19.30;99.90;;;;;;4988283;28;20408;-54
2022/09/14 06:06:13;;;;;;;15.20;10.10;;;19.30;99.90;;;;;;4987398;28;20535;-54
2022/09/14 06:08:40;;;;;;;16.10;9.93;;;19.40;99.90;;;;;;4989743;28;20771;-54
2022/09/14 06:11:14;;;;;;;17.97;10.00;;;19.40;99.90;;;;;;4990711;28;20387;-54
2022/09/14 06:13:40;;;;;;;15.98;10.60;;;19.50;99.90;;;;;;4989757;28;20394;-54
2022/09/14 06:16:18;;;;;;;15.98;10.30;;;19.50;99.90;;;;;;4973189;28;20398;-54
2022/09/14 06:18:45;;;;;;;16.58;9.60;;;19.70;99.90;;;;;;4990364;28;20418;-54
2022/09/14 06:21:16;;;;;;;13.48;9.15;;;20.00;99.90;;;;;;4990217;28;20477;-54
2022/09/14 06:23:43;;;;;;;14.90;9.57;;;20.20;99.90;;;;;;4990157;28;20406;-54
2022/09/14 06:26:09;;;;;;;15.85;8.35;;;20.20;99.90;;;;;;4972883;28;20429;-54
2022/09/14 06:28:35;;;;;;;13.40;7.65;;;20.30;99.90;;;;;;4989827;28;20422;-55
2022/09/14 06:31:03;;;;;;;12.20;7.90;;;20.20;99.90;;;;;;4990106;28;20808;-54
2022/09/14 06:33:29;;;;;;;14.07;7.60;;;20.20;99.90;;;;;;4990819;28;20728;-54
2022/09/14 06:35:56;;;;;;;13.50;7.20;;;20.20;99.90;;;;;;4989344;28;20691;-54
2022/09/14 06:38:22;;;;;;;13.13;7.30;;;20.20;99.90;;;;;;4990409;28;20398;-54
2022/09/14 06:40:59;;;;;;;10.18;6.55;;;20.30;99.90;;;;;;4989371;28;20899;-54
2022/09/14 06:43:26;;;;;;;10.30;5.63;;;20.60;99.90;;;;;;4990916;28;20394;-54
2022/09/14 06:46:18;;;;;;;10.82;5.70;;;20.80;99.90;;;;;;4989657;28;20655;-55
2022/09/14 06:48:49;;;;;;;10.38;5.57;;;20.80;99.90;;;;;;4989420;28;20425;-54
2022/09/14 06:51:21;;;;;;;9.68;5.50;;;21.00;99.90;;;;;;4990166;28;20477;-54
2022/09/14 06:53:47;;;;;;;10.32;5.28;;;21.00;99.90;;;;;;4989618;28;20439;-55
2022/09/14 06:56:14;;;;;;;10.55;5.47;;;21.10;99.90;;;;;;4972499;28;20440;-54
2022/09/14 06:58:40;;;;;;;9.48;5.72;;;21.30;99.90;;;;;;4989652;28;20510;-54
2022/09/14 07:01:09;;;;;;;12.23;5.60;;;21.40;99.90;;;;;;4990431;28;20551;-54
2022/09/14 07:03:36;;;;;;;10.80;5.50;;;21.50;99.90;;;;;;4989525;28;20446;-54
2022/09/14 07:06:07;;;;;;;11.02;5.57;;;21.60;99.90;;;;;;4972673;28;20724;-54
2022/09/14 07:08:34;;;;;;;10.63;5.70;;;21.90;99.90;;;;;;4992155;28;20867;-54
2022/09/14 07:11:00;;;;;;;10.90;5.68;;;22.00;99.90;;;;;;4975772;28;20481;-54
2022/09/14 07:13:27;;;;;;;7.53;4.40;;;22.30;99.90;;;;;;4993609;28;20470;-54
2022/09/14 07:15:54;;;;;;;10.70;5.10;;;22.90;99.90;;;;;;4993015;28;20615;-54
2022/09/14 07:18:21;;;;;;;9.02;4.53;;;24.00;85.90;;;;;;4994108;28;20382;-55
2022/09/14 07:20:47;;;;;;;8.50;4.40;;;24.60;1.00;;;;;;4992907;28;20378;-55
2022/09/14 07:23:13;;;;;;;10.20;4.65;;;25.00;1.00;;;;;;4976064;28;20390;-54
2022/09/14 07:25:39;;;;;;;8.70;4.70;;;24.80;1.00;;;;;;4992797;28;20440;-55
2022/09/14 07:28:05;;;;;;;8.35;4.07;;;24.90;99.90;;;;;;4992895;28;20759;-55
2022/09/14 07:30:35;;;;;;;8.05;4.20;;;24.60;1.00;;;;;;4993695;28;20399;-55
2022/09/14 07:33:00;;;;;;;8.20;4.00;;;24.70;1.00;;;;;;4993275;28;20386;-55
2022/09/14 07:35:26;;;;;;;8.87;3.80;;;24.70;1.00;;;;;;4993376;28;20405;-55
2022/09/14 07:37:53;;;;;;;7.20;3.80;;;25.10;99.90;;;;;;4992117;28;20383;-55
2022/09/14 07:40:21;;;;;;;9.95;4.00;;;25.60;1.00;;;;;;4993047;28;20470;-55
2022/09/14 07:42:51;;;;;;;7.10;3.20;;;25.70;82.70;;;;;;4992668;28;20413;-55
2022/09/14 07:45:17;;;;;;;9.63;3.90;;;25.50;99.90;;;;;;4993305;28;20455;-56
2022/09/14 07:47:42;;;;;;;9.40;3.80;;;25.50;99.90;;;;;;4992527;28;20554;-54
2022/09/14 07:50:08;;;;;;;7.60;3.40;;;25.10;99.90;;;;;;4992747;28;20473;-54
2022/09/14 07:52:34;;;;;;;7.13;3.10;;;25.20;99.90;;;;;;4974704;28;20375;-55
2022/09/14 07:55:00;;;;;;;8.80;3.77;;;24.90;57.10;;;;;;4992577;28;20438;-55
2022/09/14 07:57:26;;;;;;;9.90;3.90;;;24.50;1.00;;;;;;4993098;28;20793;-55
2022/09/14 07:59:52;;;;;;;8.15;3.70;;;24.60;1.00;;;;;;4991994;28;20733;-54
2022/09/14 08:02:18;;;;;;;7.75;3.78;;;24.50;1.00;;;;;;4984240;28;20422;-55
2022/09/14 08:04:43;;;;;;;7.53;3.50;;;24.70;1.00;;;;;;4991675;28;20445;-55
2022/09/14 08:07:09;;;;;;;8.97;3.57;;;25.40;99.90;;;;;;4992130;28;20402;-55
2022/09/14 08:09:38;;;;;;;10.50;3.40;;;25.60;1.00;;;;;;4974748;28;20422;-55
2022/09/14 08:12:04;;;;;;;8.30;3.70;;;25.50;1.00;;;;;;4992553;28;20391;-55
2022/09/14 08:14:30;;;;;;;7.90;2.90;;;25.50;99.90;;;;;;4992496;28;20387;-54
2022/09/14 08:16:56;;;;;;;7.65;3.45;;;25.40;1.00;;;;;;4992009;28;20441;-54
2022/09/14 08:19:21;;;;;;;8.23;3.70;;;24.90;42.40;;;;;;4991479;28;20757;-55
2022/09/14 08:21:47;;;;;;;7.97;3.55;;;24.90;99.90;;;;;;4991758;28;21185;-55
2022/09/14 08:24:16;;;;;;;7.72;3.30;;;24.90;99.90;;;;;;4992294;28;20391;-55
2022/09/14 08:26:41;;;;;;;9.05;3.88;;;24.60;99.90;;;;;;4991083;28;20378;-55
2022/09/14 08:29:07;;;;;;;8.20;3.53;;;24.40;99.90;;;;;;4992103;28;20425;-54
2022/09/14 08:31:37;;;;;;;10.23;3.27;;;23.90;1.00;;;;;;4991735;28;20906;-54
2022/09/14 08:34:03;;;;;;;7.75;3.40;;;24.10;1.00;;;;;;4992380;28;20386;-54
2022/09/14 08:36:32;;;;;;;7.30;3.50;;;24.40;1.00;;;;;;4992454;28;20375;-54
2022/09/14 08:38:59;;;;;;;7.82;3.35;;;24.10;1.00;;;;;;4991500;28;20859;-54
2022/09/14 08:41:33;;;;;;;8.60;3.70;;;24.10;1.00;;;;;;4991801;28;20379;-55
2022/09/14 08:44:09;;;;;;;8.20;3.20;;;24.50;1.00;;;;;;4992043;28;20851;-55
2022/09/14 08:46:39;;;;;;;7.43;3.28;;;24.60;1.00;;;;;;4992068;28;20442;-54
2022/09/14 08:49:15;;;;;;;8.55;3.50;;;25.10;99.90;;;;;;4991248;28;20836;-55
2022/09/14 08:51:41;;;;;;;8.13;3.30;;;24.80;99.90;;;;;;4991269;28;20398;-54
2022/09/14 08:54:08;;;;;;;7.73;3.60;;;24.50;1.00;;;;;;4991641;28;20786;-55
2022/09/14 08:56:40;;;;;;;9.05;3.90;;;24.30;1.00;;;;;;4991459;28;20391;-54
2022/09/14 08:59:27;;;;;;;8.10;4.20;;;24.10;1.00;;;;;;4975075;28;20832;-54
2022/09/14 09:02:29;;;;;;;8.20;3.40;;;24.30;1.00;;;;;;4972890;28;20847;-54
2022/09/14 09:05:20;;;;;;;9.00;4.00;;;24.50;1.00;;;;;;4991142;28;20478;-55
2022/09/14 09:08:04;;;;;;;8.68;3.22;;;24.90;1.00;;;;;;4990875;28;20383;-54
2022/09/14 09:10:31;;;;;;;8.60;3.80;;;;;;;;;;4973804;28;20874;-54
2022/09/14 09:13:00;;;;;;;8.30;3.50;;;27.50;1.00;;;;;;4990377;28;21002;-55
2022/09/14 09:15:49;;;;;;;7.10;3.50;;;27.80;49.10;;;;;;4991157;28;20523;-54
2022/09/14 09:18:46;;;;;;;7.77;3.20;;;29.00;99.90;;;;;;4991389;28;20390;-55
2022/09/14 09:21:28;;;;;;;8.10;3.40;;;29.80;72.60;;;;;;4991112;28;20441;-55
2022/09/14 09:24:18;;;;;;;8.82;3.60;;;31.00;1.00;;;;;;4973087;28;20825;-55
2022/09/14 09:26:43;;;;;;;9.35;3.30;;;31.60;1.00;;;;;;4955987;28;20860;-55
2022/09/14 09:29:10;;;;;;;7.57;4.10;;;30.60;1.00;;;;;;4990884;28;20517;-55
2022/09/14 09:31:44;;;;;;;6.80;3.20;;;29.50;1.00;;;;;;4990315;28;20754;-55
2022/09/14 09:34:14;;;;;;;6.57;3.17;;;28.70;1.00;;;;;;4991441;28;20391;-55
2022/09/14 09:36:45;;;;;;;6.80;2.75;;;28.10;1.00;;;;;;4990427;28;20378;-55
2022/09/14 09:39:11;;;;;;;7.00;2.43;;;27.90;69.10;;;;;;4990791;28;20386;-55
2022/09/14 09:41:46;;;;;;;8.52;2.80;;;28.70;1.00;;;;;;4990580;28;20517;-55
2022/09/14 09:44:12;;;;;;;7.75;2.80;;;29.20;1.00;;;;;;4991366;28;20462;-55
2022/09/14 09:46:58;;;;;;;7.30;3.00;;;29.10;1.00;;;;;;4990512;28;20518;-55
2022/09/14 09:49:34;;;;;;;7.10;2.67;;;30.40;1.00;;;;;;4990798;28;20491;-55
2022/09/14 09:52:09;;;;;;;8.00;3.15;;;31.10;1.00;;;;;;4990576;28;20867;-55
2022/09/14 09:54:36;;;;;;;7.88;3.00;;;31.10;1.00;;;;;;4990716;28;20414;-55
2022/09/14 09:57:05;;;;;;;7.18;3.40;;;30.30;1.00;;;;;;4990139;28;20389;-55
2022/09/14 09:59:31;;;;;;;8.47;3.43;;;30.50;1.00;;;;;;4990620;28;20442;-55
2022/09/14 10:02:16;;;;;;;8.60;3.20;;;30.90;1.00;;;;;;4990253;28;20971;-55
2022/09/14 10:04:57;;;;;;;7.55;3.00;;;31.90;1.00;;;;;;4990335;28;20405;-55
2022/09/14 10:07:23;;;;;;;7.45;3.13;;;33.00;1.00;;;;;;4990771;28;20387;-55
2022/09/14 10:10:10;;;;;;;7.40;3.80;;;32.00;1.00;;;;;;4989700;28;20425;-55
2022/09/14 10:12:38;;;;;;;7.20;3.30;;;31.90;1.00;;;;;;4990290;28;20929;-55
2022/09/14 10:15:25;;;;;;;8.50;2.85;;;32.10;1.00;;;;;;4991012;28;20701;-55
2022/09/14 10:18:12;;;;;;;8.63;2.70;;;30.90;1.00;;;;;;4990153;28;20860;-54
2022/09/14 10:20:52;;;;;;;7.70;2.93;;;29.20;1.00;;;;;;4990655;28;20399;-54
2022/09/14 10:23:18;;;;;;;7.97;3.20;;;28.10;1.00;;;;;;4990478;28;20387;-54
2022/09/14 10:25:52;;;;;;;8.00;2.90;;;27.70;1.00;;;;;;4989513;28;20454;-55
2022/09/14 10:28:32;;;;;;;8.30;3.00;;;27.40;99.90;;;;;;4990493;28;20505;-54
2022/09/14 10:31:12;;;;;;;6.97;2.92;;;27.10;99.90;;;;;;4989313;28;20868;-54
2022/09/14 10:33:38;;;;;;;6.78;3.40;;;27.90;99.90;;;;;;4972094;28;20883;-55
2022/09/14 10:36:07;;;;;;;8.07;3.17;;;28.30;94.50;;;;;;4990823;28;20416;-54
2022/09/14 10:38:47;;;;;;;6.80;2.78;;;28.90;1.00;;;;;;4990267;28;20465;-55
2022/09/14 10:41:25;;;;;;;7.93;2.65;;;29.10;1.00;;;;;;4973118;28;20845;-55
2022/09/14 10:44:12;;;;;;;8.40;3.00;;;28.90;1.00;;;;;;4993081;28;20386;-55
2022/09/14 10:46:52;;;;;;;7.00;2.80;;;28.50;1.00;;;;;;4993738;28;20399;-55
2022/09/14 10:49:31;;;;;;;7.50;3.00;;;28.60;1.00;;;;;;4993768;28;20560;-55
2022/09/14 10:52:25;;;;;;;7.53;2.60;;;28.40;1.00;;;;;;4993724;28;20771;-55
2022/09/14 10:55:14;;;;;;;7.75;2.90;;;27.90;1.00;;;;;;4993270;28;20466;-54
2022/09/14 10:57:47;;;;;;;7.72;2.80;;;28.20;1.00;;;;;;4993024;28;20385;-55
2022/09/14 11:00:18;;;;;;;7.80;2.78;;;28.10;1.00;;;;;;4993774;28;20410;-55
2022/09/14 11:03:32;;;;;;;7.80;2.42;;;28.30;1.00;;;;;;4993445;28;20489;-55
2022/09/14 11:06:07;;;;;;;6.83;2.77;;;28.00;1.00;;;;;;4972003;28;20397;-54
2022/09/14 11:08:51;;;;;;;6.10;2.40;;;27.90;1.00;;;;;;4993363;28;20482;-54
2022/09/14 11:11:16;;;;;;;8.13;2.40;;;28.30;1.00;;;;;;4994026;28;20385;-55
2022/09/14 11:13:57;;;;;;;8.83;2.67;;;28.70;1.00;;;;;;4992592;28;20390;-55
2022/09/14 11:17:00;;;;;;;8.45;2.63;;;29.00;1.00;;;;;;4993803;28;20402;-54
2022/09/14 11:19:32;;;;;;;6.95;2.70;;;28.80;1.00;;;;;;4993657;28;20532;-55
2022/09/14 11:22:30;;;;;;;9.30;2.97;;;28.90;1.00;;;;;;4992816;28;20382;-55
2022/09/14 11:25:19;;;;;;;6.78;2.40;;;29.50;1.00;;;;;;4992644;28;20394;-55
2022/09/14 11:27:55;;;;;;;9.00;2.88;;;29.70;1.00;;;;;;4992174;28;20471;-55
2022/09/14 11:30:36;;;;;;;7.00;2.40;;;29.70;1.00;;;;;;4993175;28;20546;-56
2022/09/14 11:33:26;;;;;;;7.15;2.65;;;29.60;1.00;;;;;;4992961;28;20491;-55
2022/09/14 11:35:58;;;;;;;7.35;2.90;;;29.80;1.00;;;;;;4992530;28;20390;-55
2022/09/14 11:38:59;;;;;;;6.00;2.33;;;29.40;1.00;;;;;;4993349;28;20751;-55
2022/09/14 11:41:28;;;;;;;7.55;2.60;;;29.20;1.00;;;;;;4993369;28;20385;-55
2022/09/14 11:44:14;;;;;;;7.30;2.20;;;28.90;1.00;;;;;;4992479;28;20391;-56
2022/09/14 11:46:48;;;;;;;9.73;2.70;;;28.70;1.00;;;;;;4992446;28;20393;-55
2022/09/14 11:49:38;;;;;;;6.72;2.50;;;28.50;1.00;;;;;;4992788;28;20484;-55
2022/09/14 11:52:24;;;;;;;8.98;2.60;;;28.70;1.00;;;;;;4992491;28;20415;-55
2022/09/14 11:54:50;;;;;;;6.88;2.63;;;28.50;1.00;;;;;;4991887;28;20386;-55
2022/09/14 11:57:27;;;;;;;7.75;2.40;;;28.10;1.00;;;;;;4993163;28;20395;-55
2022/09/14 12:00:00;;;;;;;6.65;2.10;;;28.10;1.00;;;;;;4991705;28;20461;-55
2022/09/14 12:02:28;;;;;;;7.00;2.58;;;27.80;1.00;;;;;;4992506;28;20461;-55
2022/09/14 12:05:06;;;;;;;6.53;2.70;;;27.70;1.00;;;;;;4992087;28;20400;-55
2022/09/14 12:07:41;;;;;;;6.43;2.50;;;27.70;1.00;;;;;;4992681;28;20423;-55
2022/09/14 12:10:12;;;;;;;10.57;2.80;;;27.70;1.00;;;;;;4992996;28;20505;-55
2022/09/14 12:13:04;;;;;;;7.82;2.40;;;27.60;1.00;;;;;;4991784;28;20852;-55
2022/09/14 12:15:34;;;;;;;7.13;2.30;;;27.60;1.00;;;;;;4972836;28;20857;-55
2022/09/14 12:18:06;;;;;;;8.47;2.80;;;27.50;1.00;;;;;;4972769;28;20442;-55
2022/09/14 12:20:45;;;;;;;7.87;2.80;;;27.20;1.00;;;;;;4972525;28;20446;-55
2022/09/14 12:23:19;;;;;;;6.72;2.60;;;27.30;1.00;;;;;;4973044;28;20397;-55
2022/09/14 12:26:11;;;;;;;7.50;2.60;;;27.00;1.00;;;;;;4972045;28;20920;-55
2022/09/14 12:28:39;;;;;;;9.07;3.20;;;26.80;1.00;;;;;;4949925;28;20416;-55
2022/09/14 12:31:08;;;;;;;6.80;3.00;;;26.60;1.00;;;;;;4972559;28;20955;-54
2022/09/14 12:33:34;;;;;;;7.47;3.00;;;26.50;1.00;;;;;;4972505;28;20488;-55
2022/09/14 12:36:04;;;;;;;7.00;2.50;;;26.40;1.00;;;;;;4971769;28;20936;-54
2022/09/14 12:38:29;;;;;;;6.57;2.40;;;26.20;1.00;;;;;;4972618;28;20397;-55
2022/09/14 12:41:02;;;;;;;6.30;2.60;;;25.90;1.00;;;;;;4971747;28;20458;-55
2022/09/14 12:43:33;;;;;;;7.00;2.97;;;25.90;1.00;;;;;;4972339;28;20416;-54
2022/09/14 12:46:03;;;;;;;8.00;2.80;;;25.80;1.00;;;;;;4971684;28;20392;-54
2022/09/14 12:48:46;;;;;;;8.68;3.00;;;25.70;1.00;;;;;;4972786;28;20424;-54
2022/09/14 12:51:27;;;;;;;7.40;2.50;;;25.60;99.30;;;;;;4972895;28;20384;-54
2022/09/14 12:54:08;;;;;;;7.40;2.50;;;25.40;1.00;;;;;;4971904;28;20389;-54
2022/09/14 12:57:08;;;;;;;7.97;3.00;;;25.10;1.00;;;;;;4972427;28;20424;-54
2022/09/14 12:59:36;;;;;;;6.90;2.63;;;24.70;95.50;;;;;;4972463;28;20400;-55
2022/09/14 13:02:58;;;;;;;7.20;2.90;;;24.00;99.90;;;;;;4971549;28;20451;-54
2022/09/14 13:05:27;;;;;;;8.15;3.20;;;23.50;1.00;;;;;;4931049;29;20391;-54
2022/09/14 13:07:54;;;;;;;7.80;2.90;;;23.00;1.00;;;;;;4958610;28;20731;-54
2022/09/14 13:10:33;;;;;;;8.23;3.00;;;22.60;1.00;;;;;;4972524;28;20419;-54
2022/09/14 13:13:01;;;;;;;8.82;3.72;;;22.20;44.80;;;;;;4972982;28;21096;-54